Data for 12/29/2007

Time Sea-Level Adjusted Pressure Absolute Pressure Temperature Relative Humidity Dew Point   
(mb) (inHg) (mb) (inHg) (C) (F) (%) (C) (F)
00:05 1008 29.77 837 24.72 -3.8 25.2 46 -13.9 7
00:10 1008 29.77 837 24.72 -3.6 25.4 44 -14.3 6.3
00:15 1008 29.77 837 24.72 -3.6 25.6 44 -14.2 6.4
00:20 1008 29.77 837 24.72 -3.6 25.5 44 -14.3 6.2
00:25 1008 29.77 837 24.72 -3.6 25.5 43 -14.3 6.2
00:30 1008 29.77 837 24.72 -3.6 25.5 43 -14.6 5.8
00:35 1008 29.77 837 24.72 -3.7 25.4 42 -14.9 5.2
00:40 1008 29.77 837 24.72 -3.7 25.3 42 -14.9 5.2
00:45 1008 29.77 837 24.72 -3.7 25.3 44 -14.3 6.2
00:50 1008 29.77 837 24.72 -3.8 25.1 43 -14.6 5.8
00:55 1008 29.77 837 24.72 -3.8 25.1 43 -14.7 5.5
01:00 1008 29.77 837 24.72 -3.9 25 44 -14.4 6.1
01:05 1008 29.77 837 24.72 -4 24.7 43 -14.8 5.3
01:10 1008 29.77 837 24.72 -4 24.8 44 -14.6 5.7
01:15 1008 29.77 837 24.72 -4.2 24.5 45 -14.4 6.1
01:20 1008 29.77 837 24.72 -4.4 24.1 47 -14 6.9
01:25 1008 29.77 837 24.72 -4.3 24.3 44 -14.9 5.2
01:30 1008 29.77 837 24.72 -4.2 24.4 43 -14.9 5.1
01:35 1008 29.77 837 24.72 -4.1 24.7 41 -15.4 4.3
01:40 1008 29.77 837 24.72 -4.1 24.7 43 -14.8 5.4
01:45 1008 29.77 837 24.72 -4.4 24.1 44 -15 5
01:50 1008 29.77 837 24.72 -4.4 24 45 -14.8 5.3
01:55 1008 29.77 837 24.72 -4.7 23.6 46 -14.5 5.8
02:00 1008 29.77 837 24.72 -4.8 23.3 47 -14.5 6
02:05 1008 29.77 837 24.72 -4.8 23.4 46 -14.9 5.3
02:10 1008 29.77 837 24.72 -4.8 23.4 47 -14.4 6.1
02:15 1008 29.77 837 24.72 -4.9 23.1 48 -14.4 6.1
02:20 1008 29.77 837 24.72 -5 23.1 50 -14 6.9
02:25 1008 29.77 837 24.72 -5.1 22.9 51 -13.7 7.4
02:30 1008 29.77 837 24.72 -5.4 22.3 52 -13.8 7.2
02:35 1008 29.77 837 24.72 -5.5 22 53 -13.7 7.4
02:40 1008 29.77 837 24.72 -5.5 22 50 -14.4 6
02:45 1008 29.77 837 24.72 -5.2 22.7 48 -14.5 6
02:50 1008 29.77 837 24.72 -5 22.9 47 -14.6 5.7
02:55 1008 29.77 837 24.72 -4.9 23.2 46 -14.7 5.5
03:00 1008 29.77 837 24.72 -4.7 23.5 47 -14.4 6
03:05 1007 29.74 837 24.72 -4.7 23.5 45 -14.9 5.2
03:10 1007 29.74 837 24.72 -4.3 24.2 43 -15.2 4.6
03:15 1007 29.74 837 24.72 -3.8 25.1 42 -15 5
03:20 1007 29.74 837 24.72 -3.7 25.3 42 -14.8 5.4
03:25 1007 29.74 837 24.72 -3.6 25.4 43 -14.6 5.7
03:30 1007 29.74 836 24.69 -3.5 25.6 40 -15.3 4.5
03:35 1007 29.74 836 24.69 -3.1 26.3 38 -15.5 4.1
03:40 1007 29.74 836 24.69 -2.9 26.8 38 -15.4 4.4
03:45 1007 29.74 836 24.69 -3.1 26.4 41 -14.7 5.6
03:50 1007 29.74 836 24.69 -3.6 25.6 45 -13.9 7
03:55 1007 29.74 836 24.69 -3.9 25 46 -13.8 7.2
04:00 1007 29.74 836 24.69 -3.8 25.1 45 -14.2 6.4
04:05 1007 29.74 836 24.69 -3.7 25.3 45 -14.1 6.6
04:10 1007 29.74 836 24.69 -3.8 25.2 45 -14.1 6.6
04:15 1007 29.74 836 24.69 -3.8 25.1 44 -14.3 6.3
04:20 1007 29.74 836 24.69 -3.8 25.1 46 -13.9 6.9
04:25 1007 29.74 836 24.69 -3.9 25 44 -14.4 6
04:30 1007 29.74 836 24.69 -3.9 25 47 -13.5 7.7
04:35 1007 29.74 836 24.69 -4.1 24.6 47 -13.9 7
04:40 1007 29.74 836 24.69 -4.2 24.4 47 -14.1 6.7
04:45 1007 29.74 836 24.69 -4.3 24.2 47 -13.9 6.9
04:50 1007 29.74 836 24.69 -4.4 24.1 48 -13.8 7.2
04:55 1007 29.74 836 24.69 -4.4 24 49 -13.5 7.7
05:00 1007 29.74 836 24.69 -4.6 23.8 51 -13.2 8.2
05:05 1007 29.74 836 24.69 -4.6 23.8 52 -13 8.6
05:10 1007 29.74 836 24.69 -4.5 23.9 53 -12.8 9
05:15 1007 29.74 836 24.69 -4.5 23.8 53 -12.8 8.9
05:20 1007 29.74 836 24.69 -4.6 23.7 53 -12.8 8.9
05:25 1007 29.74 836 24.69 -4.5 23.8 52 -13 8.7
05:30 1007 29.74 836 24.69 -4.4 24.1 51 -13.2 8.3
05:35 1007 29.74 836 24.69 -4.5 23.9 53 -12.8 8.9
05:40 1007 29.74 836 24.69 -4.8 23.4 54 -12.8 9
05:45 1007 29.74 836 24.69 -4.6 23.8 54 -12.6 9.4
05:50 1007 29.74 836 24.69 -4.4 24 55 -12.3 9.9
05:55 1007 29.74 836 24.69 -4.5 24 55 -12.2 10
06:00 1007 29.74 836 24.69 -4.5 24 55 -12.1 10.2
06:05 1007 29.74 836 24.69 -4.5 24 56 -12 10.4
06:10 1007 29.74 836 24.69 -4.4 24.1 56 -11.9 10.6
06:15 1007 29.74 836 24.69 -4.3 24.3 54 -12.3 9.8
06:20 1007 29.74 836 24.69 -4.1 24.6 55 -11.9 10.6
06:25 1006 29.71 836 24.69 -4.1 24.7 53 -12.3 9.9
06:30 1006 29.71 836 24.69 -4 24.8 53 -12.3 9.9
06:35 1006 29.71 836 24.69 -4 24.7 53 -12.3 9.9
06:40 1006 29.71 835 24.66 -4.1 24.7 54 -12.1 10.2
06:45 1006 29.71 835 24.66 -4.1 24.5 54 -12.2 10
06:50 1006 29.71 835 24.66 -4.2 24.5 53 -12.3 9.8
06:55 1006 29.71 835 24.66 -4.2 24.4 54 -12.2 10.1
07:00 1006 29.71 835 24.66 -4.2 24.5 51 -12.9 8.8
07:05 1006 29.71 835 24.66 -4.1 24.6 53 -12.4 9.6
07:10 1006 29.71 835 24.66 -4.2 24.5 52 -12.7 9.1
07:15 1006 29.71 835 24.66 -4.1 24.6 52 -12.5 9.4
07:20 1006 29.71 835 24.66 -4.2 24.5 53 -12.5 9.6
07:25 1006 29.71 835 24.66 -4.3 24.3 54 -12.3 9.9
07:30 1006 29.71 835 24.66 -4.5 23.9 54 -12.5 9.6
07:35 1006 29.71 835 24.66 -4.8 23.4 55 -12.5 9.4
07:40 1006 29.71 835 24.66 -4.9 23.2 54 -12.8 9
07:45 1006 29.71 835 24.66 -4.8 23.3 54 -12.7 9.1
07:50 1006 29.71 835 24.66 -4.8 23.3 54 -12.8 9
07:55 1006 29.71 835 24.66 -5 23.1 55 -12.6 9.4
08:00 1006 29.71 835 24.66 -5.1 22.9 55 -12.8 9
08:05 1006 29.71 835 24.66 -5 22.9 55 -12.8 9
08:10 1006 29.71 835 24.66 -4.9 23.3 55 -12.7 9.2
08:15 1006 29.71 835 24.66 -4.8 23.3 55 -12.5 9.5
08:20 1006 29.71 835 24.66 -4.7 23.6 52 -13.2 8.3
08:25 1006 29.71 835 24.66 -4.4 24.1 51 -13.1 8.4
08:30 1006 29.71 835 24.66 -4.4 24.2 50 -13.3 8.1
08:35 1006 29.71 835 24.66 -4.2 24.5 49 -13.3 8
08:40 1006 29.71 835 24.66 -4.2 24.5 50 -13.2 8.2
08:45 1006 29.71 835 24.66 -4.3 24.3 50 -13.1 8.4
08:50 1006 29.71 835 24.66 -4 24.9 48 -13.4 7.9
08:55 1006 29.71 835 24.66 -3.4 25.8 46 -13.4 7.9
09:00 1006 29.71 835 24.66 -3.3 26.1 46 -13.5 7.8
09:05 1006 29.71 835 24.66 -3.6 25.5 49 -12.8 8.9
09:10 1006 29.71 835 24.66 -3.8 25.2 49 -13 8.5
09:15 1006 29.71 835 24.66 -3.8 25.1 49 -13 8.6
09:20 1006 29.71 835 24.66 -4 24.9 48 -13.4 7.8
09:25 1006 29.71 835 24.66 -4 24.8 51 -12.8 9
09:30 1006 29.71 835 24.66 -3.9 24.9 51 -12.7 9.2
09:35 1006 29.71 835 24.66 -4.1 24.5 53 -12.4 9.8
09:40 1006 29.71 835 24.66 -4.2 24.4 54 -12.3 9.9
09:45 1006 29.71 835 24.66 -4.5 23.9 55 -12.3 9.8
09:50 1006 29.71 835 24.66 -4.8 23.4 56 -12.4 9.7
09:55 1006 29.71 835 24.66 -4.7 23.5 55 -12.5 9.5
10:00 1006 29.71 835 24.66 -4.6 23.8 54 -12.4 9.6
10:05 1006 29.71 835 24.66 -4.3 24.3 53 -12.4 9.7
10:10 1006 29.71 835 24.66 -4.2 24.5 54 -12.1 10.2
10:15 1006 29.71 835 24.66 -4.3 24.2 56 -11.9 10.5
10:20 1006 29.71 835 24.66 -4.5 23.9 56 -12.1 10.2
10:25 1006 29.71 835 24.66 -4.1 24.7 53 -12.2 10
10:30 1006 29.71 835 24.66 -3.5 25.6 52 -12.1 10.3
10:35 1006 29.71 835 24.66 -3.2 26.2 52 -11.8 10.7
10:40 1006 29.71 835 24.66 -3.2 26.3 51 -11.8 10.7
10:45 1006 29.71 835 24.66 -3.4 25.9 52 -11.9 10.6
10:50 1006 29.71 835 24.66 -3 26.6 50 -12.2 10.1
10:55 1006 29.71 835 24.66 -2.6 27.3 47 -12.5 9.5
11:00 1006 29.71 835 24.66 -2.7 27.2 47 -12.6 9.4
11:05 1006 29.71 835 24.66 -2.6 27.3 46 -12.6 9.4
11:10 1005 29.68 835 24.66 -2.3 27.9 45 -12.6 9.4
11:15 1006 29.71 835 24.66 -2.1 28.2 45 -12.6 9.3
11:20 1006 29.71 835 24.66 -2.3 27.8 47 -12.1 10.1
11:25 1005 29.68 835 24.66 -2.4 27.6 46 -12.5 9.5
11:30 1005 29.68 835 24.66 -2.4 27.6 48 -11.9 10.6
11:35 1006 29.71 835 24.66 -2.1 28.3 48 -11.6 11.2
11:40 1006 29.71 835 24.66 -1.8 28.7 46 -11.9 10.6
11:45 1006 29.71 835 24.66 -1.6 29.2 46 -11.9 10.7
11:50 1006 29.71 835 24.66 -1.4 29.5 46 -11.6 11.1
11:55 1006 29.71 835 24.66 -1.5 29.3 50 -10.7 12.7
12:00 1006 29.71 835 24.66 -1.8 28.8 52 -10.3 13.5
12:05 1006 29.71 835 24.66 -2.1 28.1 54 -10.2 13.6
12:10 1005 29.68 835 24.66 -2.2 28 55 -10.1 13.8
12:15 1005 29.68 835 24.66 -2.3 27.9 55 -10.1 13.8
12:20 1005 29.68 835 24.66 -2.5 27.5 55 -10.4 13.3
12:25 1005 29.68 834 24.63 -2.8 27 57 -10.2 13.7
12:30 1005 29.68 834 24.63 -2.7 27.1 54 -10.8 12.5
12:35 1005 29.68 834 24.63 -2.5 27.5 54 -10.6 12.9
12:40 1005 29.68 834 24.63 -2.3 27.9 52 -10.8 12.6
12:45 1005 29.68 834 24.63 -2.3 27.8 51 -11.1 11.9
12:50 1005 29.68 834 24.63 -2.2 28 49 -11.5 11.2
12:55 1005 29.68 834 24.63 -2.1 28.2 47 -12 10.5
13:00 1005 29.68 834 24.63 -2.2 28.1 50 -11.4 11.5
13:05 1005 29.68 834 24.63 -2.3 27.9 49 -11.5 11.3
13:10 1005 29.68 834 24.63 -2.4 27.7 51 -11.3 11.6
13:15 1005 29.68 834 24.63 -2.6 27.3 51 -11.3 11.7
13:20 1005 29.68 834 24.63 -2.7 27.2 53 -11 12.3
13:25 1005 29.68 834 24.63 -2.7 27.2 53 -11 12.2
13:30 1005 29.68 834 24.63 -2.7 27.1 53 -11.1 12.1
13:35 1005 29.68 834 24.63 -2.8 27 53 -11.2 11.9
13:40 1005 29.68 834 24.63 -2.8 27 51 -11.5 11.4
13:45 1005 29.68 834 24.63 -2.7 27.1 51 -11.5 11.3
13:50 1005 29.68 834 24.63 -2.7 27.1 52 -11.3 11.7
13:55 1005 29.68 834 24.63 -2.8 27 51 -11.6 11.1
14:00 1005 29.68 834 24.63 -2.3 27.8 49 -11.7 11
14:05 1005 29.68 834 24.63 -2.1 28.3 48 -11.6 11.2
14:10 1005 29.68 835 24.66 -2.3 27.9 49 -11.7 10.9
14:15 1005 29.68 835 24.66 -2.2 28 48 -11.7 10.9
14:20 1005 29.68 835 24.66 -2.2 28 48 -11.8 10.8
14:25 1005 29.68 835 24.66 -2.1 28.2 50 -11.2 11.8
14:30 1006 29.71 835 24.66 -2.2 28 49 -11.7 11
14:35 1006 29.71 835 24.66 -2.3 27.9 50 -11.3 11.7
14:40 1006 29.71 835 24.66 -2.3 27.9 51 -11.1 11.9
14:45 1006 29.71 835 24.66 -2.4 27.7 51 -11.2 11.8
14:50 1006 29.71 835 24.66 -2.3 27.8 51 -11.2 11.9
14:55 1006 29.71 835 24.66 -2.1 28.1 49 -11.4 11.4
15:00 1006 29.71 835 24.66 -1.9 28.6 50 -11 12.1
15:05 1006 29.71 835 24.66 -1.6 29.1 50 -10.9 12.4
15:10 1006 29.71 835 24.66 -1.7 28.9 51 -10.5 13.1
15:15 1006 29.71 835 24.66 -1.8 28.8 50 -10.9 12.4
15:20 1006 29.71 835 24.66 -2 28.5 52 -10.5 13.1
15:25 1006 29.71 836 24.69 -2.4 27.7 61 -9 15.9
15:30 1007 29.74 836 24.69 -2.9 26.8 66 -8.4 16.8
15:35 1007 29.74 836 24.69 -3.5 25.8 81 -6.3 20.7
15:40 1007 29.74 836 24.69 -4.1 24.6 86 -6.2 20.9
15:45 1007 29.74 836 24.69 -4.1 24.6 84 -6.5 20.3
15:50 1007 29.74 836 24.69 -3.7 25.3 79 -6.9 19.6
15:55 1007 29.74 836 24.69 -3.6 25.5 77 -7 19.3
16:00 1007 29.74 836 24.69 -3.9 25 77 -7.3 18.8
16:05 1007 29.74 836 24.69 -3.8 25.1 76 -7.5 18.5
16:10 1007 29.74 836 24.69 -4 24.8 77 -7.4 18.7
16:15 1007 29.74 836 24.69 -4.3 24.3 74 -8.2 17.3
16:20 1007 29.74 836 24.69 -4.1 24.6 68 -9.2 15.5
16:25 1007 29.74 836 24.69 -4 24.8 63 -10 14
16:30 1007 29.74 836 24.69 -4 24.8 61 -10.3 13.4
16:35 1007 29.74 836 24.69 -3.9 24.9 60 -10.6 12.9
16:40 1007 29.74 836 24.69 -3.9 25 59 -10.8 12.5
16:45 1007 29.74 836 24.69 -4 24.7 59 -10.9 12.5
16:50 1007 29.74 836 24.69 -4.2 24.4 60 -10.9 12.5
16:55 1007 29.74 837 24.72 -4.2 24.4 59 -11.1 12
17:00 1007 29.74 837 24.72 -4.2 24.4 59 -11.1 11.9
17:05 1008 29.77 837 24.72 -4.2 24.4 58 -11.2 11.8
17:10 1008 29.77 837 24.72 -4.2 24.4 63 -10.2 13.6
17:15 1008 29.77 837 24.72 -4.4 24 71 -8.9 16
17:20 1008 29.77 837 24.72 -4.5 23.9 75 -8.4 16.9
17:25 1008 29.77 837 24.72 -4.5 23.8 75 -8.3 17.1
17:30 1008 29.77 837 24.72 -4.6 23.7 75 -8.3 17
17:35 1008 29.77 837 24.72 -4.5 23.8 70 -9.2 15.4
17:40 1008 29.77 837 24.72 -4.3 24.2 69 -9.2 15.4
17:45 1008 29.77 837 24.72 -4.3 24.2 70 -9 15.9
17:50 1008 29.77 837 24.72 -4.4 24.1 69 -9.3 15.2
17:55 1008 29.77 837 24.72 -4.4 24.1 73 -8.6 16.6
18:00 1008 29.77 837 24.72 -4.5 23.9 70 -9.1 15.6
18:05 1008 29.77 838 24.75 -4.6 23.8 73 -8.7 16.3
18:10 1008 29.77 838 24.75 -4.6 23.7 74 -8.6 16.6
18:15 1008 29.77 838 24.75 -4.8 23.4 74 -8.8 16.2
18:20 1008 29.77 838 24.75 -4.8 23.3 67 -10.1 13.8
18:25 1008 29.77 838 24.75 -4.8 23.3 55 -12.5 9.6
18:30 1008 29.77 838 24.75 -4.7 23.5 54 -12.8 9
18:35 1009 29.8 838 24.75 -4.7 23.6 51 -13.2 8.2
18:40 1009 29.8 838 24.75 -4.5 23.8 50 -13.5 7.7
18:45 1009 29.8 838 24.75 -4.6 23.7 54 -12.6 9.4
18:50 1009 29.8 838 24.75 -5.1 22.8 54 -13 8.7
18:55 1009 29.8 838 24.75 -5.1 22.8 55 -12.8 9
19:00 1009 29.8 838 24.75 -5 23 54 -12.9 8.8
19:05 1009 29.8 838 24.75 -5 23 55 -12.8 9
19:10 1009 29.8 838 24.75 -5.1 22.9 55 -12.9 8.8
19:15 1009 29.8 838 24.75 -5.2 22.6 55 -13 8.6
19:20 1009 29.8 838 24.75 -5.3 22.5 56 -12.8 9
19:25 1009 29.8 838 24.75 -5.4 22.3 55 -13 8.7
19:30 1009 29.8 838 24.75 -5.4 22.3 55 -13.1 8.4
19:35 1009 29.8 838 24.75 -5.4 22.3 55 -13.1 8.3
19:40 1009 29.8 838 24.75 -5.4 22.2 54 -13.4 7.8
19:45 1009 29.8 838 24.75 -5.6 22 54 -13.6 7.6
19:50 1009 29.8 838 24.75 -5.8 21.6 53 -13.9 6.9
19:55 1009 29.8 838 24.75 -5.8 21.6 51 -14.5 6
20:00 1009 29.8 838 24.75 -5.8 21.6 51 -14.5 6
20:05 1009 29.8 838 24.75 -5.9 21.4 51 -14.6 5.8
20:10 1009 29.8 838 24.75 -6 21.2 51 -14.6 5.6
20:15 1009 29.8 838 24.75 -6.1 21 50 -14.9 5.2
20:20 1009 29.8 838 24.75 -6.1 21.1 50 -15 5
20:25 1009 29.8 838 24.75 -5.9 21.4 49 -15.1 4.8
20:30 1008 29.77 838 24.75 -5.9 21.4 49 -15 5
20:35 1008 29.77 838 24.75 -6 21.3 48 -15.4 4.3
20:40 1008 29.77 838 24.75 -5.9 21.4 48 -15.3 4.5
20:45 1008 29.77 838 24.75 -5.9 21.3 47 -15.6 3.9
20:50 1008 29.77 838 24.75 -6 21.1 47 -15.7 3.7
20:55 1008 29.77 838 24.75 -6.4 20.6 48 -15.8 3.6
21:00 1008 29.77 838 24.75 -6.6 20.2 48 -15.9 3.3
21:05 1008 29.77 838 24.75 -6.5 20.3 47 -16.2 2.9
21:10 1008 29.77 838 24.75 -6 21.3 44 -16.5 2.3
21:15 1008 29.77 838 24.75 -5.6 21.9 43 -16.3 2.6
21:20 1008 29.77 838 24.75 -5.5 22.1 42 -16.3 2.6
21:25 1008 29.77 837 24.72 -5.5 22 44 -16.1 3
21:30 1008 29.77 837 24.72 -5.9 21.3 44 -16.3 2.6
21:35 1008 29.77 838 24.75 -6.4 20.5 45 -16.4 2.5
21:40 1008 29.77 837 24.72 -6.8 19.7 45 -16.8 1.8
21:45 1008 29.77 837 24.72 -6.7 19.9 46 -16.6 2.1
21:50 1008 29.77 837 24.72 -6.7 20 44 -17 1.4
21:55 1008 29.77 837 24.72 -6.5 20.3 45 -16.6 2.2
22:00 1008 29.77 838 24.75 -7 19.5 47 -16.4 2.5
22:05 1008 29.77 838 24.75 -7 19.4 48 -16.3 2.6
22:10 1008 29.77 838 24.75 -6.8 19.7 49 -15.8 3.6
22:15 1008 29.77 838 24.75 -7 19.5 49 -16 3.1
22:20 1008 29.77 838 24.75 -6.9 19.5 50 -15.8 3.6
22:25 1008 29.77 838 24.75 -6.8 19.7 49 -15.9 3.4
22:30 1008 29.77 837 24.72 -6.7 20 49 -15.7 3.7
22:35 1008 29.77 837 24.72 -6.7 20 50 -15.5 4.1
22:40 1008 29.77 837 24.72 -6.6 20.2 49 -15.7 3.7
22:45 1008 29.77 837 24.72 -6.7 19.9 49 -15.6 3.9
22:50 1008 29.77 837 24.72 -6.7 19.9 49 -15.7 3.7
22:55 1008 29.77 837 24.72 -6.6 20.1 49 -15.7 3.8
23:00 1008 29.77 837 24.72 -6.7 20 49 -15.8 3.5
23:05 1008 29.77 837 24.72 -6.6 20.2 50 -15.4 4.3
23:10 1008 29.77 837 24.72 -6.7 19.9 52 -15 5
23:15 1008 29.77 837 24.72 -6.8 19.7 51 -15.3 4.4
23:20 1008 29.77 837 24.72 -7 19.5 52 -15.3 4.5
23:25 1008 29.77 837 24.72 -7.1 19.2 52 -15.3 4.5
23:30 1008 29.77 837 24.72 -7.4 18.7 53 -15.4 4.2
23:35 1008 29.77 837 24.72 -7.6 18.3 53 -15.6 3.9
23:40 1008 29.77 837 24.72 -7.7 18.2 53 -15.8 3.6
23:45 1008 29.77 837 24.72 -7.7 18.2 52 -15.8 3.5
23:50 1007 29.74 837 24.72 -7.6 18.3 52 -16 3.3
23:55 1007 29.74 837 24.72 -7.5 18.5 50 -16.2 2.9
24:00 1007 29.74 837 24.72 -7.4 18.7 49 -16.3 2.6